Time;durP1;ratioP1;P1;durP2;ratioP2;P2;SDS_P1;SDS_P2;PMS_P1;PMS_P2;Temp;Humidity;BMP_temperature;BMP_pressure;BME280_temperature;BME280_humidity;BME280_pressure;Samples;Min_cycle;Max_cycle;Signal;HPM_P1;HPM_P2
2023/09/28 04:31:04;;;;;;;0.00;0.00;;;15.30;84.40;;;;;;5546661;23;20052;-74
2023/09/28 04:33:30;;;;;;;0.05;0.05;;;15.30;84.40;;;;;;4873455;29;20021;-74
2023/09/28 04:35:56;;;;;;;0.10;0.10;;;15.30;84.60;;;;;;4881131;29;20033;-74
2023/09/28 04:38:22;;;;;;;0.10;0.10;;;15.30;84.60;;;;;;4865995;29;20022;-75
2023/09/28 04:40:48;;;;;;;0.10;0.10;;;15.30;84.80;;;;;;4873940;29;20121;-75
2023/09/28 04:43:13;;;;;;;0.10;0.10;;;15.40;84.70;;;;;;4884198;29;20040;-74
2023/09/28 04:45:39;;;;;;;0.10;0.10;;;15.40;84.60;;;;;;4884579;29;20033;-74
2023/09/28 04:48:05;;;;;;;0.10;0.10;;;15.60;84.50;;;;;;4873390;29;20238;-74
2023/09/28 04:50:30;;;;;;;0.10;0.10;;;15.60;84.30;;;;;;4882932;29;20036;-74
2023/09/28 04:52:56;;;;;;;0.10;0.10;;;15.60;84.40;;;;;;4882699;29;20037;-74
2023/09/28 04:55:23;;;;;;;0.10;0.10;;;15.60;84.40;;;;;;4868906;29;20041;-76
2023/09/28 04:57:48;;;;;;;0.10;0.10;;;15.60;84.50;;;;;;4865939;29;20028;-74
2023/09/28 05:00:16;;;;;;;0.10;0.10;;;15.60;84.70;;;;;;4863829;29;20148;-74
2023/09/28 05:02:45;;;;;;;0.20;0.20;;;15.60;84.60;;;;;;4867685;29;20022;-74
2023/09/28 05:05:11;;;;;;;0.10;0.10;;;15.60;84.50;;;;;;4865930;29;20116;-74
2023/09/28 05:07:37;;;;;;;0.10;0.10;;;15.60;84.70;;;;;;4866315;29;20077;-74
2023/09/28 05:10:03;;;;;;;0.10;0.10;;;15.60;84.70;;;;;;4874710;29;20033;-75
2023/09/28 05:12:29;;;;;;;0.10;0.10;;;15.60;84.60;;;;;;4864969;29;20150;-75
2023/09/28 05:14:54;;;;;;;0.10;0.10;;;15.50;84.70;;;;;;4868725;29;20108;-77
2023/09/28 05:17:20;;;;;;;0.10;0.10;;;15.60;84.60;;;;;;4883736;29;20400;-75
2023/09/28 05:19:46;;;;;;;0.10;0.10;;;15.60;84.60;;;;;;4883820;29;20160;-75
2023/09/28 05:22:11;;;;;;;0.10;0.10;;;15.60;84.50;;;;;;4882552;29;20036;-75
2023/09/28 05:24:37;;;;;;;0.10;0.10;;;15.60;84.50;;;;;;4870616;29;20033;-75
2023/09/28 05:27:03;;;;;;;0.10;0.10;;;15.60;84.40;;;;;;4884255;29;20033;-75
2023/09/28 05:29:30;;;;;;;0.10;0.10;;;15.60;84.30;;;;;;4883653;29;20036;-75
2023/09/28 05:31:55;;;;;;;0.20;0.10;;;15.60;84.10;;;;;;4877805;29;20041;-75
2023/09/28 05:34:21;;;;;;;0.10;0.10;;;15.60;84.10;;;;;;4883808;29;20033;-75
2023/09/28 05:36:47;;;;;;;0.10;0.10;;;15.50;84.20;;;;;;4881860;29;20060;-75
2023/09/28 05:39:12;;;;;;;0.10;0.10;;;15.50;84.20;;;;;;4865771;29;20412;-75
2023/09/28 05:41:38;;;;;;;0.10;0.10;;;15.50;84.10;;;;;;4867410;29;20033;-75
2023/09/28 05:44:04;;;;;;;0.10;0.10;;;15.50;84.00;;;;;;4865420;29;20041;-74
2023/09/28 05:46:30;;;;;;;0.10;0.10;;;15.50;83.90;;;;;;4880865;29;20113;-75
2023/09/28 05:48:56;;;;;;;0.10;0.10;;;15.50;84.00;;;;;;4883241;29;20065;-75
2023/09/28 05:51:22;;;;;;;0.10;0.10;;;15.50;84.10;;;;;;4882140;29;20029;-75
2023/09/28 05:53:52;;;;;;;0.10;0.10;;;15.40;84.20;;;;;;4862923;29;20064;-75
2023/09/28 05:56:17;;;;;;;0.10;0.10;;;15.30;84.20;;;;;;4883428;29;20024;-73
2023/09/28 05:58:43;;;;;;;0.10;0.10;;;15.30;84.30;;;;;;4881167;29;20093;-74
2023/09/28 06:01:13;;;;;;;0.10;0.10;;;15.40;84.40;;;;;;4868416;29;20053;-74
2023/09/28 06:03:39;;;;;;;0.10;0.10;;;15.40;84.40;;;;;;4882305;29;20032;-74
2023/09/28 06:06:18;;;;;;;0.10;0.10;;;15.40;84.30;;;;;;4883265;29;20025;-73
2023/09/28 06:08:50;;;;;;;0.10;0.10;;;15.50;84.20;;;;;;4868979;29;20033;-76
2023/09/28 06:11:17;;;;;;;0.10;0.10;;;15.40;84.10;;;;;;4847798;29;20038;-74
2023/09/28 06:13:44;;;;;;;0.10;0.10;;;15.40;84.40;;;;;;4877557;29;20063;-74
2023/09/28 06:16:13;;;;;;;0.10;0.10;;;15.40;84.20;;;;;;4880207;29;20057;-75
2023/09/28 06:18:40;;;;;;;0.10;0.10;;;15.40;84.20;;;;;;4873979;29;20045;-73
2023/09/28 06:21:06;;;;;;;0.10;0.10;;;15.40;84.20;;;;;;4872373;29;20030;-73
2023/09/28 06:23:33;;;;;;;0.10;0.10;;;15.40;84.10;;;;;;4873807;29;20035;-73
2023/09/28 06:25:58;;;;;;;0.00;0.00;;;15.40;84.00;;;;;;4873705;29;20033;-73
2023/09/28 06:28:24;;;;;;;0.10;0.10;;;15.50;83.90;;;;;;4872962;29;20032;-73
2023/09/28 06:30:55;;;;;;;0.13;0.13;;;15.60;83.70;;;;;;4865665;29;20063;-73
2023/09/28 06:33:23;;;;;;;0.10;0.10;;;15.60;83.60;;;;;;4877570;29;20475;-73
2023/09/28 06:35:48;;;;;;;0.10;0.10;;;15.60;83.50;;;;;;4882733;29;20552;-73
2023/09/28 06:38:14;;;;;;;0.05;0.05;;;15.60;83.50;;;;;;4882132;29;20091;-72
2023/09/28 06:40:42;;;;;;;0.10;0.10;;;15.60;83.60;;;;;;4882502;29;20507;-73
2023/09/28 06:43:08;;;;;;;0.10;0.10;;;15.50;83.80;;;;;;4882560;29;20029;-73
2023/09/28 06:45:34;;;;;;;0.10;0.10;;;15.60;83.60;;;;;;4882531;29;20374;-72
2023/09/28 06:48:00;;;;;;;0.10;0.10;;;15.70;83.60;;;;;;4864281;29;20041;-71
2023/09/28 06:50:25;;;;;;;0.00;0.00;;;15.70;83.50;;;;;;4863846;29;20493;-73
2023/09/28 06:52:51;;;;;;;0.10;0.10;;;15.70;83.50;;;;;;4863834;29;20131;-70
2023/09/28 06:55:17;;;;;;;0.10;0.10;;;15.70;83.50;;;;;;4865241;29;20043;-70
2023/09/28 06:57:43;;;;;;;0.10;0.10;;;15.70;83.60;;;;;;4879924;29;20032;-71
2023/09/28 07:00:16;;;;;;;0.03;0.03;;;15.70;83.50;;;;;;4863931;29;20046;-71
2023/09/28 07:02:47;;;;;;;0.10;0.10;;;15.60;83.80;;;;;;4871967;29;20033;-70
2023/09/28 07:05:15;;;;;;;0.10;0.10;;;15.60;83.90;;;;;;4878963;29;20040;-72
2023/09/28 07:07:42;;;;;;;0.10;0.10;;;15.60;84.00;;;;;;4881212;29;20021;-71
2023/09/28 07:10:10;;;;;;;0.10;0.10;;;15.60;84.20;;;;;;4881333;29;20459;-71
2023/09/28 07:12:35;;;;;;;0.17;0.17;;;15.60;84.10;;;;;;4874538;29;20022;-71
2023/09/28 07:15:02;;;;;;;0.17;0.17;;;15.60;84.20;;;;;;4846688;29;20400;-75
2023/09/28 07:17:27;;;;;;;0.20;0.20;;;15.60;84.30;;;;;;4863293;29;20042;-74
2023/09/28 07:19:53;;;;;;;0.10;0.10;;;15.80;83.90;;;;;;4863460;29;20560;-72
2023/09/28 07:22:21;;;;;;;0.10;0.10;;;16.30;83.30;;;;;;4846838;29;20053;-72
2023/09/28 07:24:46;;;;;;;0.10;0.10;;;16.20;82.80;;;;;;4869778;29;20021;-71
2023/09/28 07:27:13;;;;;;;0.10;0.10;;;16.10;83.00;;;;;;4881427;29;20485;-72
2023/09/28 07:29:38;;;;;;;0.20;0.20;;;15.90;83.50;;;;;;4881415;29;20118;-72
2023/09/28 07:32:05;;;;;;;0.20;0.20;;;15.90;83.90;;;;;;4891761;29;20065;-72
2023/09/28 07:34:31;;;;;;;0.10;0.10;;;16.40;83.10;;;;;;4881104;29;20068;-72
2023/09/28 07:36:57;;;;;;;0.10;0.10;;;16.70;82.90;;;;;;4880473;29;20046;-72
2023/09/28 07:39:23;;;;;;;0.10;0.10;;;16.80;82.60;;;;;;4861968;29;20416;-72
2023/09/28 07:41:51;;;;;;;0.10;0.10;;;16.80;82.30;;;;;;4871794;29;20021;-72
2023/09/28 07:44:18;;;;;;;0.10;0.10;;;16.70;82.30;;;;;;4881841;29;20029;-72
2023/09/28 07:46:45;;;;;;;0.10;0.10;;;16.70;82.30;;;;;;4889917;29;20017;-71
2023/09/28 07:49:10;;;;;;;0.10;0.10;;;16.70;82.40;;;;;;4881006;29;20029;-72
2023/09/28 07:51:36;;;;;;;0.20;0.17;;;16.60;82.50;;;;;;4893420;29;20076;-72
2023/09/28 07:54:01;;;;;;;0.10;0.10;;;16.50;82.80;;;;;;4863020;29;20556;-72
2023/09/28 07:56:27;;;;;;;0.10;0.10;;;16.60;82.80;;;;;;4875852;29;20512;-72
2023/09/28 07:58:53;;;;;;;0.10;0.10;;;16.70;82.80;;;;;;4895906;29;20081;-72
2023/09/28 08:01:18;;;;;;;0.10;0.10;;;16.90;82.80;;;;;;4875520;29;20124;-72
2023/09/28 08:03:44;;;;;;;0.10;0.10;;;17.00;82.80;;;;;;4879032;29;20033;-72
2023/09/28 08:06:10;;;;;;;0.10;0.10;;;17.00;82.30;;;;;;4879811;29;20037;-72
2023/09/28 08:08:37;;;;;;;0.10;0.10;;;17.00;82.50;;;;;;4881744;29;20025;-72
2023/09/28 08:11:02;;;;;;;0.10;0.10;;;17.10;82.40;;;;;;4881657;29;20056;-72
2023/09/28 08:13:28;;;;;;;0.10;0.10;;;17.20;82.50;;;;;;4879737;29;20433;-72
2023/09/28 08:15:54;;;;;;;0.10;0.10;;;17.30;82.30;;;;;;4881283;29;20033;-72
2023/09/28 08:18:19;;;;;;;0.10;0.10;;;17.30;81.90;;;;;;4894269;29;20112;-72
2023/09/28 08:20:46;;;;;;;0.10;0.10;;;17.30;82.00;;;;;;4881547;29;20037;-72
2023/09/28 08:23:11;;;;;;;0.10;0.10;;;17.30;82.10;;;;;;4881479;29;20024;-72
2023/09/28 08:25:37;;;;;;;0.10;0.10;;;17.50;82.10;;;;;;4880781;29;20225;-72
2023/09/28 08:28:03;;;;;;;0.10;0.10;;;17.50;81.60;;;;;;4881510;29;20033;-72
2023/09/28 08:30:29;;;;;;;0.00;0.00;;;17.50;81.60;;;;;;4881317;29;20048;-72
2023/09/28 08:32:54;;;;;;;0.10;0.10;;;17.70;81.90;;;;;;4879315;29;20097;-72
2023/09/28 08:35:20;;;;;;;0.10;0.10;;;17.70;82.00;;;;;;4881350;29;20040;-72
2023/09/28 08:37:46;;;;;;;0.10;0.10;;;17.70;82.10;;;;;;4875600;29;20033;-72
2023/09/28 08:40:13;;;;;;;0.20;0.20;;;17.70;82.00;;;;;;4868127;29;20064;-72
2023/09/28 08:42:41;;;;;;;0.00;0.00;;;17.80;81.70;;;;;;4862139;29;20033;-72
2023/09/28 08:45:08;;;;;;;0.10;0.10;;;17.90;81.80;;;;;;4863567;29;20036;-72
2023/09/28 08:47:41;;;;;;;0.10;0.10;;;17.90;81.30;;;;;;4865976;29;20717;-72
2023/09/28 08:50:09;;;;;;;0.00;0.00;;;18.10;81.60;;;;;;4866426;29;20809;-72
2023/09/28 08:52:36;;;;;;;0.10;0.10;;;18.10;81.00;;;;;;4865868;29;20496;-72
2023/09/28 08:55:03;;;;;;;0.10;0.10;;;18.10;80.60;;;;;;4878077;29;20077;-72
2023/09/28 08:57:30;;;;;;;0.10;0.10;;;18.20;80.90;;;;;;4884611;29;20484;-72
2023/09/28 08:59:58;;;;;;;0.17;0.17;;;18.30;80.90;;;;;;4884249;29;20029;-72
2023/09/28 09:02:27;;;;;;;0.10;0.10;;;18.30;81.00;;;;;;4867093;29;20111;-72
2023/09/28 09:04:53;;;;;;;0.10;0.10;;;18.40;80.70;;;;;;4884376;29;20077;-72
2023/09/28 09:07:21;;;;;;;0.10;0.10;;;18.50;80.30;;;;;;4880725;29;20484;-72
2023/09/28 09:09:47;;;;;;;0.10;0.10;;;18.60;80.10;;;;;;4867332;29;20044;-72
2023/09/28 09:12:13;;;;;;;0.10;0.10;;;18.50;79.30;;;;;;4869014;29;20496;-72
2023/09/28 09:14:38;;;;;;;0.10;0.10;;;18.60;79.80;;;;;;4860468;29;20385;-72
2023/09/28 09:17:04;;;;;;;0.10;0.10;;;18.80;79.90;;;;;;4865463;29;20526;-72
2023/09/28 09:19:31;;;;;;;0.10;0.10;;;18.80;79.50;;;;;;4865583;29;20063;-72
2023/09/28 09:21:57;;;;;;;0.10;0.10;;;18.90;79.20;;;;;;4866374;29;20041;-72
2023/09/28 09:24:23;;;;;;;0.10;0.10;;;19.00;78.90;;;;;;4884023;29;20017;-72
2023/09/28 09:26:56;;;;;;;0.13;0.13;;;19.00;78.30;;;;;;4884040;29;20378;-72
2023/09/28 09:29:22;;;;;;;0.05;0.05;;;19.20;78.00;;;;;;4883419;29;20113;-72
2023/09/28 09:31:49;;;;;;;0.10;0.10;;;19.30;77.10;;;;;;4883434;29;20055;-72
2023/09/28 09:34:19;;;;;;;0.10;0.10;;;19.40;77.10;;;;;;4883157;29;20117;-72
2023/09/28 09:36:56;;;;;;;0.10;0.10;;;19.50;77.00;;;;;;4883735;29;20037;-72
2023/09/28 09:39:27;;;;;;;0.10;0.10;;;19.50;75.30;;;;;;4883743;29;20033;-72
2023/09/28 09:41:54;;;;;;;0.10;0.10;;;19.50;74.80;;;;;;4883814;29;20033;-72
2023/09/28 09:44:20;;;;;;;0.20;0.20;;;19.50;75.10;;;;;;4874095;29;20032;-72
2023/09/28 09:46:48;;;;;;;0.10;0.10;;;19.60;75.10;;;;;;4864885;29;20130;-73
2023/09/28 09:49:18;;;;;;;0.10;0.10;;;19.60;74.20;;;;;;4865041;29;20033;-72
2023/09/28 09:51:50;;;;;;;0.10;0.10;;;19.70;75.20;;;;;;4866009;29;20030;-72
2023/09/28 09:54:18;;;;;;;0.10;0.10;;;19.60;74.70;;;;;;4883620;29;20052;-72
2023/09/28 09:56:46;;;;;;;0.10;0.10;;;19.70;75.60;;;;;;4882753;29;20033;-72
2023/09/28 09:59:15;;;;;;;0.10;0.10;;;19.70;74.20;;;;;;4883255;29;20452;-72
2023/09/28 10:01:46;;;;;;;0.10;0.10;;;19.80;73.50;;;;;;4882622;29;20045;-73
2023/09/28 10:04:16;;;;;;;0.10;0.10;;;19.90;73.00;;;;;;4883267;29;20033;-72
2023/09/28 10:06:47;;;;;;;0.10;0.10;;;20.00;73.60;;;;;;4883003;29;20033;-72
2023/09/28 10:09:16;;;;;;;0.10;0.10;;;20.10;73.60;;;;;;4862725;29;20033;-72
2023/09/28 10:11:43;;;;;;;0.10;0.10;;;20.30;73.10;;;;;;4864589;29;20037;-73
2023/09/28 10:14:10;;;;;;;0.10;0.10;;;20.40;71.60;;;;;;4864676;29;20119;-73
2023/09/28 10:16:39;;;;;;;0.10;0.10;;;20.50;70.40;;;;;;4869192;29;20108;-73
2023/09/28 10:19:06;;;;;;;0.10;0.10;;;20.80;71.20;;;;;;4881626;29;20048;-73
2023/09/28 10:21:36;;;;;;;0.10;0.10;;;20.90;69.50;;;;;;4881618;29;20480;-73
2023/09/28 10:24:12;;;;;;;0.10;0.10;;;20.80;68.60;;;;;;4850721;29;20052;-72
2023/09/28 10:26:42;;;;;;;0.10;0.10;;;20.80;68.30;;;;;;4865873;29;20025;-73
2023/09/28 10:29:10;;;;;;;0.10;0.10;;;20.90;69.20;;;;;;4865796;29;20037;-73
2023/09/28 10:31:37;;;;;;;0.10;0.10;;;21.00;67.90;;;;;;4866324;29;20057;-72
2023/09/28 10:34:04;;;;;;;0.10;0.10;;;21.10;67.70;;;;;;4864713;29;20030;-73
2023/09/28 10:36:32;;;;;;;0.10;0.10;;;21.00;67.80;;;;;;4881474;29;20044;-73
2023/09/28 10:39:14;;;;;;;0.10;0.10;;;20.80;67.90;;;;;;4882521;29;20049;-73
2023/09/28 10:41:51;;;;;;;0.08;0.08;;;20.80;69.20;;;;;;4882629;29;20021;-73
2023/09/28 10:44:20;;;;;;;0.20;0.20;;;20.80;69.20;;;;;;4877807;29;20042;-73
2023/09/28 10:46:48;;;;;;;0.10;0.10;;;20.70;68.60;;;;;;4863963;29;20093;-73
2023/09/28 10:49:27;;;;;;;0.10;0.10;;;20.80;69.30;;;;;;4863819;29;20033;-73
2023/09/28 10:51:57;;;;;;;0.10;0.10;;;20.80;68.30;;;;;;4864514;29;20504;-73
2023/09/28 10:54:25;;;;;;;0.10;0.10;;;21.00;69.40;;;;;;4863856;29;20038;-73
2023/09/28 10:56:51;;;;;;;0.10;0.10;;;21.20;69.90;;;;;;4863834;29;20397;-73
2023/09/28 10:59:21;;;;;;;0.15;0.15;;;21.20;70.10;;;;;;4877907;29;20116;-73
2023/09/28 11:01:48;;;;;;;0.10;0.10;;;21.00;69.00;;;;;;4875934;29;20392;-73
2023/09/28 11:04:15;;;;;;;0.10;0.10;;;20.80;69.80;;;;;;4879084;29;20032;-72
2023/09/28 11:06:44;;;;;;;0.10;0.10;;;20.80;70.60;;;;;;4882391;29;20052;-73
2023/09/28 11:09:11;;;;;;;0.10;0.10;;;20.60;70.90;;;;;;4882440;29;20396;-73
2023/09/28 11:11:39;;;;;;;0.00;0.00;;;20.50;71.20;;;;;;4895970;29;20127;-73
2023/09/28 11:14:05;;;;;;;0.00;0.00;;;20.50;71.70;;;;;;4882159;29;20099;-73
2023/09/28 11:16:38;;;;;;;0.08;0.08;;;20.40;72.10;;;;;;4880706;29;20135;-73
2023/09/28 11:19:04;;;;;;;;;;;20.40;72.20;;;;;;4880226;29;20032;-73
2023/09/28 11:21:30;;;;;;;0.10;0.10;;;20.50;72.60;;;;;;4863601;29;19923;-73
2023/09/28 11:23:56;;;;;;;0.00;0.00;;;20.40;72.90;;;;;;4863882;29;20487;-73
2023/09/28 11:26:22;;;;;;;0.00;0.00;;;20.30;74.00;;;;;;4882069;29;20096;-73
2023/09/28 11:28:50;;;;;;;0.08;0.08;;;20.30;75.50;;;;;;4881918;29;20107;-72
2023/09/28 11:31:15;;;;;;;0.10;0.10;;;20.20;76.20;;;;;;4881259;29;20053;-73
2023/09/28 11:33:43;;;;;;;0.10;0.10;;;20.10;76.90;;;;;;4881599;29;20044;-73
2023/09/28 11:36:22;;;;;;;0.10;0.10;;;20.00;78.00;;;;;;4882057;29;20065;-73
2023/09/28 11:38:49;;;;;;;0.10;0.10;;;19.90;78.40;;;;;;4869702;29;20045;-73
2023/09/28 11:41:15;;;;;;;0.10;0.10;;;19.90;78.80;;;;;;4876597;29;20029;-73
2023/09/28 11:43:50;;;;;;;0.10;0.10;;;20.00;79.50;;;;;;4864740;29;20466;-73
2023/09/28 11:46:22;;;;;;;0.10;0.10;;;20.10;79.90;;;;;;4846560;29;20028;-72
2023/09/28 11:49:01;;;;;;;0.00;0.00;;;20.30;79.60;;;;;;4846485;29;20033;-73
2023/09/28 11:51:29;;;;;;;0.10;0.10;;;20.10;80.00;;;;;;4863584;29;20033;-73
2023/09/28 11:53:55;;;;;;;0.10;0.10;;;20.10;80.60;;;;;;4863214;29;20564;-73
2023/09/28 11:56:22;;;;;;;0.08;0.08;;;20.10;81.20;;;;;;4863242;29;20053;-73
2023/09/28 11:58:48;;;;;;;0.10;0.10;;;20.00;81.60;;;;;;4863429;29;20041;-73
2023/09/28 12:01:13;;;;;;;0.03;0.03;;;19.80;82.20;;;;;;4862961;29;20025;-73
2023/09/28 12:03:39;;;;;;;0.05;0.05;;;19.80;82.40;;;;;;4878584;29;20026;-73
2023/09/28 12:06:05;;;;;;;0.10;0.10;;;19.80;82.60;;;;;;4881666;29;20559;-73
2023/09/28 12:08:30;;;;;;;0.00;0.00;;;19.60;82.60;;;;;;4852551;29;20044;-73
2023/09/28 12:10:59;;;;;;;0.10;0.10;;;19.50;83.30;;;;;;4862916;29;20025;-73
2023/09/28 12:13:26;;;;;;;0.05;0.05;;;19.50;83.90;;;;;;4863087;29;20081;-73
2023/09/28 12:15:52;;;;;;;0.10;0.10;;;19.60;83.70;;;;;;4879169;29;20025;-73
2023/09/28 12:18:18;;;;;;;0.05;0.05;;;19.60;83.90;;;;;;4880605;29;20037;-73
2023/09/28 12:20:44;;;;;;;0.00;0.00;;;19.60;83.70;;;;;;4883097;29;20497;-73
2023/09/28 12:23:09;;;;;;;0.10;0.10;;;19.60;84.40;;;;;;4871216;29;20412;-73
2023/09/28 12:25:35;;;;;;;0.00;0.00;;;19.60;83.90;;;;;;4880365;29;20101;-73
2023/09/28 12:28:02;;;;;;;0.10;0.10;;;19.60;84.10;;;;;;4884940;29;20025;-73
2023/09/28 12:30:29;;;;;;;0.10;0.10;;;19.50;84.60;;;;;;4884367;29;20097;-73
2023/09/28 12:32:57;;;;;;;0.10;0.10;;;19.50;84.90;;;;;;4884486;29;20029;-73
2023/09/28 12:35:23;;;;;;;0.08;0.00;;;19.50;84.90;;;;;;4884890;29;20138;-73
2023/09/28 12:37:49;;;;;;;0.10;0.10;;;19.50;85.00;;;;;;4884604;29;20089;-73
2023/09/28 12:40:15;;;;;;;0.15;0.10;;;19.50;84.70;;;;;;4880117;29;20041;-73
2023/09/28 12:42:41;;;;;;;0.10;0.10;;;19.30;85.30;;;;;;4866185;29;20040;-73
2023/09/28 12:45:07;;;;;;;0.00;0.00;;;19.30;85.30;;;;;;4866061;29;20033;-73
2023/09/28 12:47:33;;;;;;;0.10;0.10;;;19.30;85.20;;;;;;4866107;29;20025;-73
2023/09/28 12:49:59;;;;;;;0.10;0.10;;;19.30;85.50;;;;;;4884129;29;20585;-73
2023/09/28 12:52:25;;;;;;;0.10;0.10;;;19.40;85.30;;;;;;4884645;29;20032;-73
2023/09/28 12:54:50;;;;;;;0.10;0.10;;;19.40;85.30;;;;;;4879205;29;20033;-73
2023/09/28 12:57:16;;;;;;;0.10;0.10;;;19.40;85.60;;;;;;4865848;29;20112;-73
2023/09/28 12:59:43;;;;;;;0.20;0.13;;;19.50;85.60;;;;;;4865805;29;20057;-73
2023/09/28 13:02:08;;;;;;;0.00;0.00;;;19.40;85.70;;;;;;4873238;29;20035;-73
2023/09/28 13:04:34;;;;;;;0.10;0.10;;;19.50;85.80;;;;;;4884369;29;20060;-73
2023/09/28 13:07:00;;;;;;;0.00;0.00;;;19.60;85.90;;;;;;4884227;29;20025;-73
2023/09/28 13:09:29;;;;;;;0.10;0.10;;;19.60;85.40;;;;;;4883694;29;20043;-73
2023/09/28 13:11:54;;;;;;;0.10;0.10;;;19.50;86.00;;;;;;4878937;29;20036;-73
2023/09/28 13:14:25;;;;;;;0.10;0.10;;;19.60;86.00;;;;;;4874136;29;20037;-73
2023/09/28 13:16:52;;;;;;;0.00;0.00;;;19.50;86.10;;;;;;4884149;29;20025;-73
2023/09/28 13:19:18;;;;;;;0.10;0.10;;;19.60;86.20;;;;;;4867203;29;20118;-73
2023/09/28 13:21:46;;;;;;;0.10;0.10;;;19.50;86.30;;;;;;4884000;29;20460;-73
2023/09/28 13:24:12;;;;;;;0.10;0.10;;;19.50;86.40;;;;;;4872792;29;20035;-73
2023/09/28 13:26:38;;;;;;;0.10;0.10;;;19.50;86.40;;;;;;4884032;29;20404;-73
2023/09/28 13:29:04;;;;;;;0.10;0.10;;;19.60;86.70;;;;;;4867099;29;20116;-73
2023/09/28 13:31:30;;;;;;;0.10;0.10;;;19.60;86.60;;;;;;4882256;29;20140;-73
2023/09/28 13:33:56;;;;;;;0.10;0.10;;;19.60;86.60;;;;;;4883285;29;20029;-73
2023/09/28 13:36:22;;;;;;;0.00;0.00;;;19.60;86.60;;;;;;4883892;29;20465;-73
2023/09/28 13:38:50;;;;;;;0.10;0.10;;;19.80;86.70;;;;;;4863336;29;20038;-73
2023/09/28 13:41:16;;;;;;;0.10;0.10;;;19.80;86.60;;;;;;4849918;29;20040;-73
2023/09/28 13:43:45;;;;;;;0.10;0.10;;;19.80;86.60;;;;;;4883610;29;20084;-73
2023/09/28 13:46:11;;;;;;;0.10;0.10;;;19.70;86.70;;;;;;4883126;29;20131;-73
2023/09/28 13:48:37;;;;;;;0.10;0.10;;;19.70;87.30;;;;;;4866922;29;20029;-73
2023/09/28 13:51:03;;;;;;;0.10;0.10;;;19.70;87.40;;;;;;4883472;29;20093;-73
2023/09/28 13:53:29;;;;;;;0.10;0.10;;;19.70;87.40;;;;;;4883459;29;20021;-73
2023/09/28 13:55:56;;;;;;;0.10;0.10;;;19.80;87.50;;;;;;4883027;29;20508;-73
2023/09/28 13:58:24;;;;;;;0.10;0.10;;;19.80;87.40;;;;;;4883470;29;20441;-73
2023/09/28 14:00:53;;;;;;;0.10;0.10;;;19.80;87.60;;;;;;4883106;29;20089;-73
2023/09/28 14:03:19;;;;;;;0.10;0.10;;;19.90;87.70;;;;;;4883241;29;20025;-73
2023/09/28 14:05:46;;;;;;;0.10;0.10;;;20.00;87.50;;;;;;4883005;29;20033;-73
2023/09/28 14:08:12;;;;;;;0.10;0.10;;;20.20;87.50;;;;;;4883399;29;20522;-73
2023/09/28 14:10:38;;;;;;;0.10;0.10;;;20.20;87.30;;;;;;4883080;29;20033;-73
2023/09/28 14:13:04;;;;;;;0.10;0.10;;;20.30;87.40;;;;;;4880479;29;20436;-73
2023/09/28 14:15:29;;;;;;;0.10;0.10;;;20.30;87.20;;;;;;4883187;29;20130;-73
2023/09/28 14:17:56;;;;;;;0.10;0.10;;;20.20;87.50;;;;;;4883079;29;20037;-73
2023/09/28 14:20:24;;;;;;;0.08;0.08;;;20.20;87.70;;;;;;4882161;29;20161;-73
2023/09/28 14:22:50;;;;;;;0.17;0.17;;;20.20;87.40;;;;;;4879983;29;20017;-73
2023/09/28 14:25:16;;;;;;;0.10;0.10;;;20.20;87.60;;;;;;4872798;29;20041;-73
2023/09/28 14:27:44;;;;;;;0.10;0.10;;;20.30;87.50;;;;;;4876707;29;20032;-73
2023/09/28 14:30:10;;;;;;;0.10;0.10;;;20.30;87.50;;;;;;4865690;29;20041;-74
2023/09/28 14:32:36;;;;;;;0.10;0.10;;;20.30;87.50;;;;;;4877555;29;20037;-73
2023/09/28 14:35:03;;;;;;;0.10;0.10;;;20.30;87.30;;;;;;4879386;29;20056;-73
2023/09/28 14:37:31;;;;;;;0.10;0.10;;;20.30;87.30;;;;;;4882825;29;20025;-73
2023/09/28 14:39:56;;;;;;;0.10;0.10;;;20.40;87.20;;;;;;4881858;29;20041;-73
2023/09/28 14:42:22;;;;;;;0.10;0.10;;;20.40;87.30;;;;;;4882757;29;20420;-73
2023/09/28 14:44:47;;;;;;;0.10;0.10;;;20.40;87.20;;;;;;4865631;29;20068;-73
2023/09/28 14:47:13;;;;;;;0.10;0.10;;;20.30;87.30;;;;;;4882754;29;20021;-73
2023/09/28 14:49:39;;;;;;;0.00;0.00;;;20.40;87.10;;;;;;4881715;29;20048;-73
2023/09/28 14:52:04;;;;;;;0.10;0.10;;;20.30;87.50;;;;;;4881576;29;20033;-73
2023/09/28 14:54:30;;;;;;;0.10;0.10;;;20.40;87.60;;;;;;4882526;29;20097;-73
2023/09/28 14:56:56;;;;;;;0.10;0.10;;;20.40;87.40;;;;;;4881859;29;20478;-73
2023/09/28 14:59:22;;;;;;;0.10;0.10;;;20.40;87.40;;;;;;4882066;29;20123;-73
2023/09/28 15:01:48;;;;;;;0.10;0.10;;;20.40;87.70;;;;;;4880972;29;20496;-73
2023/09/28 15:04:13;;;;;;;0.10;0.10;;;20.50;87.40;;;;;;4878295;29;20104;-75
2023/09/28 15:06:40;;;;;;;0.10;0.10;;;20.60;87.70;;;;;;4854867;29;20029;-76
2023/09/28 15:09:06;;;;;;;0.10;0.10;;;20.70;87.40;;;;;;4877476;29;20461;-76
2023/09/28 15:11:32;;;;;;;0.10;0.10;;;20.60;87.60;;;;;;4873536;29;20021;-78
2023/09/28 15:13:58;;;;;;;0.10;0.10;;;20.70;87.50;;;;;;4852180;29;20052;-77
2023/09/28 15:16:23;;;;;;;0.10;0.10;;;20.70;87.50;;;;;;4863956;29;20025;-75
2023/09/28 15:18:49;;;;;;;0.10;0.10;;;20.70;87.70;;;;;;4861269;29;20036;-80
2023/09/28 15:21:15;;;;;;;0.10;0.10;;;20.80;87.60;;;;;;4873301;29;20029;-75
2023/09/28 15:23:41;;;;;;;0.00;0.00;;;20.70;87.70;;;;;;4872741;29;20028;-74
2023/09/28 15:26:07;;;;;;;0.10;0.10;;;20.50;87.80;;;;;;4870203;29;20033;-75
2023/09/28 15:28:35;;;;;;;0.10;0.10;;;20.50;87.80;;;;;;4849613;29;20029;-75
2023/09/28 15:31:01;;;;;;;0.10;0.10;;;20.50;88.20;;;;;;4875531;29;20049;-78
2023/09/28 15:33:26;;;;;;;0.10;0.10;;;20.60;88.10;;;;;;4861438;29;20032;-75
2023/09/28 15:35:54;;;;;;;0.10;0.10;;;20.70;88.10;;;;;;4873319;29;20086;-75
2023/09/28 15:38:20;;;;;;;0.10;0.10;;;20.80;88.00;;;;;;4870251;29;20021;-84
2023/09/28 15:40:46;;;;;;;0.10;0.10;;;20.80;87.90;;;;;;4862110;29;20036;-85
2023/09/28 15:43:12;;;;;;;0.10;0.10;;;21.00;87.90;;;;;;4870333;29;20029;-76
2023/09/28 15:45:38;;;;;;;0.10;0.10;;;21.00;87.60;;;;;;4863632;29;20049;-79
2023/09/28 15:48:05;;;;;;;0.10;0.10;;;21.10;87.60;;;;;;4865105;29;20512;-77
2023/09/28 15:50:30;;;;;;;0.03;0.03;;;21.00;87.60;;;;;;4869715;29;20040;-79
2023/09/28 15:52:56;;;;;;;0.00;0.00;;;21.00;87.60;;;;;;4874439;29;20033;-76
2023/09/28 15:55:22;;;;;;;0.00;0.00;;;20.90;87.70;;;;;;4855109;29;20029;-76
2023/09/28 15:57:48;;;;;;;0.10;0.10;;;20.80;87.60;;;;;;4877699;29;20029;-76
2023/09/28 16:00:14;;;;;;;0.10;0.10;;;20.80;88.10;;;;;;4852855;29;20105;-75
2023/09/28 16:02:39;;;;;;;0.05;0.05;;;20.70;88.70;;;;;;4876835;29;20391;-73
2023/09/28 16:05:05;;;;;;;0.10;0.10;;;20.60;88.60;;;;;;4861350;29;20037;-74
2023/09/28 16:07:31;;;;;;;0.10;0.10;;;20.70;88.80;;;;;;4876292;29;20102;-74
2023/09/28 16:09:56;;;;;;;0.10;0.10;;;20.70;88.80;;;;;;4873186;29;20461;-75
2023/09/28 16:12:24;;;;;;;0.05;0.00;;;20.80;88.80;;;;;;4871943;29;20033;-74
2023/09/28 16:14:50;;;;;;;0.10;0.10;;;20.80;88.60;;;;;;4863951;29;20037;-75
2023/09/28 16:17:15;;;;;;;0.00;0.00;;;20.80;88.50;;;;;;4880105;29;20033;-75
2023/09/28 16:19:41;;;;;;;0.00;0.00;;;20.80;88.40;;;;;;4878099;29;20058;-75
2023/09/28 16:22:07;;;;;;;0.00;0.00;;;20.80;88.40;;;;;;4875968;29;20392;-75
2023/09/28 16:24:33;;;;;;;0.00;0.00;;;20.80;88.50;;;;;;4855551;29;20533;-75
2023/09/28 16:27:02;;;;;;;0.10;0.10;;;20.80;88.50;;;;;;4867227;29;20509;-75
2023/09/28 16:29:28;;;;;;;0.00;0.00;;;20.80;88.50;;;;;;4868594;29;20068;-75
2023/09/28 16:31:54;;;;;;;0.08;0.08;;;20.70;88.60;;;;;;4863575;29;20049;-75
2023/09/28 16:34:20;;;;;;;0.10;0.10;;;20.70;88.70;;;;;;4871749;29;20041;-75
2023/09/28 16:36:47;;;;;;;0.10;0.10;;;20.70;88.80;;;;;;4868332;29;20090;-75
2023/09/28 16:39:13;;;;;;;0.00;0.00;;;20.70;88.70;;;;;;4871224;29;20416;-75
2023/09/28 16:41:39;;;;;;;0.10;0.10;;;20.80;88.70;;;;;;4872270;29;20037;-75
2023/09/28 16:44:04;;;;;;;0.00;0.00;;;20.80;88.60;;;;;;4881611;29;20025;-75
2023/09/28 16:46:31;;;;;;;0.05;0.00;;;20.80;88.80;;;;;;4876900;29;20029;-75
2023/09/28 16:48:57;;;;;;;0.10;0.03;;;20.80;88.70;;;;;;4874923;29;20047;-75
2023/09/28 16:51:22;;;;;;;0.00;0.00;;;20.80;88.60;;;;;;4870294;29;20143;-75
2023/09/28 16:53:49;;;;;;;0.00;0.00;;;20.80;88.60;;;;;;4877937;29;20029;-75
2023/09/28 16:56:15;;;;;;;0.00;0.00;;;20.80;88.60;;;;;;4870203;29;20037;-74
2023/09/28 16:58:44;;;;;;;0.00;0.00;;;20.80;88.50;;;;;;4870993;29;20060;-74
2023/09/28 17:01:10;;;;;;;0.00;0.00;;;20.80;88.40;;;;;;4870079;29;20021;-74
2023/09/28 17:03:36;;;;;;;0.00;0.00;;;20.70;88.40;;;;;;4872273;29;20048;-74
2023/09/28 17:06:02;;;;;;;0.00;0.00;;;20.80;88.40;;;;;;4873146;29;20385;-74
2023/09/28 17:08:28;;;;;;;0.00;0.00;;;20.70;88.10;;;;;;4881266;29;20054;-75
2023/09/28 17:10:54;;;;;;;0.00;0.00;;;20.60;88.00;;;;;;4864167;29;21217;-74
2023/09/28 17:13:23;;;;;;;0.00;0.00;;;20.60;87.90;;;;;;4868827;29;20037;-74
2023/09/28 17:15:49;;;;;;;0.00;0.00;;;20.60;88.00;;;;;;4876566;29;20028;-74